sensor_id;sensor_type;location;lat;lon;timestamp;P1;durP1;ratioP1;P2;durP2;ratioP2
27313;SDS011;14800;48.174;9.798;2024-03-29T00:00:41;1.15;;;0.80;;
27313;SDS011;14800;48.174;9.798;2024-03-29T00:03:08;1.40;;;0.90;;
27313;SDS011;14800;48.174;9.798;2024-03-29T00:05:34;0.90;;;0.75;;
27313;SDS011;14800;48.174;9.798;2024-03-29T00:08:00;1.17;;;0.80;;
27313;SDS011;14800;48.174;9.798;2024-03-29T00:10:26;1.42;;;0.70;;
27313;SDS011;14800;48.174;9.798;2024-03-29T00:12:52;1.00;;;0.60;;
27313;SDS011;14800;48.174;9.798;2024-03-29T00:15:17;1.13;;;0.50;;
27313;SDS011;14800;48.174;9.798;2024-03-29T00:17:43;0.77;;;0.70;;
27313;SDS011;14800;48.174;9.798;2024-03-29T00:20:09;1.00;;;0.60;;
27313;SDS011;14800;48.174;9.798;2024-03-29T00:22:34;1.10;;;0.60;;
27313;SDS011;14800;48.174;9.798;2024-03-29T00:25:00;1.00;;;0.68;;
27313;SDS011;14800;48.174;9.798;2024-03-29T00:27:26;0.50;;;0.50;;
27313;SDS011;14800;48.174;9.798;2024-03-29T00:29:53;0.60;;;0.60;;
27313;SDS011;14800;48.174;9.798;2024-03-29T00:32:22;1.25;;;0.60;;
27313;SDS011;14800;48.174;9.798;2024-03-29T00:34:49;2.10;;;0.63;;
27313;SDS011;14800;48.174;9.798;2024-03-29T00:37:15;0.98;;;0.70;;
27313;SDS011;14800;48.174;9.798;2024-03-29T00:39:41;0.90;;;0.60;;
27313;SDS011;14800;48.174;9.798;2024-03-29T00:42:07;0.90;;;0.80;;
27313;SDS011;14800;48.174;9.798;2024-03-29T00:44:40;2.88;;;0.90;;
27313;SDS011;14800;48.174;9.798;2024-03-29T00:47:06;1.63;;;1.17;;
27313;SDS011;14800;48.174;9.798;2024-03-29T00:49:31;1.80;;;1.27;;
27313;SDS011;14800;48.174;9.798;2024-03-29T00:51:57;2.20;;;1.67;;
27313;SDS011;14800;48.174;9.798;2024-03-29T00:54:22;2.80;;;1.65;;
27313;SDS011;14800;48.174;9.798;2024-03-29T00:56:49;3.53;;;1.58;;
27313;SDS011;14800;48.174;9.798;2024-03-29T00:59:15;2.33;;;1.65;;
27313;SDS011;14800;48.174;9.798;2024-03-29T01:01:40;1.70;;;1.60;;
27313;SDS011;14800;48.174;9.798;2024-03-29T01:04:06;1.80;;;1.55;;
27313;SDS011;14800;48.174;9.798;2024-03-29T01:06:32;2.85;;;1.80;;
27313;SDS011;14800;48.174;9.798;2024-03-29T01:08:58;2.70;;;1.70;;
27313;SDS011;14800;48.174;9.798;2024-03-29T01:11:24;2.78;;;1.75;;
27313;SDS011;14800;48.174;9.798;2024-03-29T01:13:50;2.25;;;1.80;;
27313;SDS011;14800;48.174;9.798;2024-03-29T01:16:15;2.17;;;1.40;;
27313;SDS011;14800;48.174;9.798;2024-03-29T01:18:41;1.67;;;1.33;;
27313;SDS011;14800;48.174;9.798;2024-03-29T01:21:08;1.52;;;1.42;;
27313;SDS011;14800;48.174;9.798;2024-03-29T01:23:34;2.55;;;1.60;;
27313;SDS011;14800;48.174;9.798;2024-03-29T01:26:00;2.75;;;2.00;;
27313;SDS011;14800;48.174;9.798;2024-03-29T01:28:26;3.10;;;2.08;;
27313;SDS011;14800;48.174;9.798;2024-03-29T01:30:52;3.08;;;2.20;;
27313;SDS011;14800;48.174;9.798;2024-03-29T01:33:18;2.58;;;2.10;;
27313;SDS011;14800;48.174;9.798;2024-03-29T01:35:44;2.65;;;2.03;;
27313;SDS011;14800;48.174;9.798;2024-03-29T01:38:09;2.92;;;2.20;;
27313;SDS011;14800;48.174;9.798;2024-03-29T01:40:35;3.92;;;2.35;;
27313;SDS011;14800;48.174;9.798;2024-03-29T01:43:01;3.35;;;2.17;;
27313;SDS011;14800;48.174;9.798;2024-03-29T01:45:26;2.78;;;2.20;;
27313;SDS011;14800;48.174;9.798;2024-03-29T01:47:53;3.03;;;1.98;;
27313;SDS011;14800;48.174;9.798;2024-03-29T01:50:19;3.55;;;2.30;;
27313;SDS011;14800;48.174;9.798;2024-03-29T01:52:45;4.05;;;2.45;;
27313;SDS011;14800;48.174;9.798;2024-03-29T01:55:11;4.13;;;2.30;;
27313;SDS011;14800;48.174;9.798;2024-03-29T01:57:36;3.40;;;2.20;;
27313;SDS011;14800;48.174;9.798;2024-03-29T02:00:03;3.15;;;2.50;;
27313;SDS011;14800;48.174;9.798;2024-03-29T02:02:31;3.42;;;2.30;;
27313;SDS011;14800;48.174;9.798;2024-03-29T02:04:57;3.60;;;2.40;;
27313;SDS011;14800;48.174;9.798;2024-03-29T02:07:24;3.47;;;2.40;;
27313;SDS011;14800;48.174;9.798;2024-03-29T02:09:50;4.43;;;2.33;;
27313;SDS011;14800;48.174;9.798;2024-03-29T02:12:16;2.90;;;2.28;;
27313;SDS011;14800;48.174;9.798;2024-03-29T02:14:41;3.17;;;2.30;;
27313;SDS011;14800;48.174;9.798;2024-03-29T02:17:07;2.45;;;2.20;;
27313;SDS011;14800;48.174;9.798;2024-03-29T02:19:33;3.50;;;2.35;;
27313;SDS011;14800;48.174;9.798;2024-03-29T02:21:59;3.83;;;2.58;;
27313;SDS011;14800;48.174;9.798;2024-03-29T02:24:26;4.70;;;2.70;;
27313;SDS011;14800;48.174;9.798;2024-03-29T02:26:54;3.83;;;2.60;;
27313;SDS011;14800;48.174;9.798;2024-03-29T02:29:21;3.17;;;2.30;;
27313;SDS011;14800;48.174;9.798;2024-03-29T02:31:46;3.53;;;2.42;;
27313;SDS011;14800;48.174;9.798;2024-03-29T02:34:12;3.33;;;2.22;;
27313;SDS011;14800;48.174;9.798;2024-03-29T02:36:38;5.13;;;2.85;;
27313;SDS011;14800;48.174;9.798;2024-03-29T02:39:03;3.47;;;2.38;;
27313;SDS011;14800;48.174;9.798;2024-03-29T02:41:29;3.53;;;2.17;;
27313;SDS011;14800;48.174;9.798;2024-03-29T02:43:55;2.33;;;2.00;;
27313;SDS011;14800;48.174;9.798;2024-03-29T02:46:21;2.78;;;2.13;;
27313;SDS011;14800;48.174;9.798;2024-03-29T02:48:47;2.75;;;1.90;;
27313;SDS011;14800;48.174;9.798;2024-03-29T02:51:12;2.35;;;1.85;;
27313;SDS011;14800;48.174;9.798;2024-03-29T02:53:38;2.30;;;1.70;;
27313;SDS011;14800;48.174;9.798;2024-03-29T02:56:04;3.55;;;2.13;;
27313;SDS011;14800;48.174;9.798;2024-03-29T02:58:32;3.13;;;2.25;;
27313;SDS011;14800;48.174;9.798;2024-03-29T03:01:04;2.15;;;1.70;;
27313;SDS011;14800;48.174;9.798;2024-03-29T03:03:34;2.97;;;2.20;;
27313;SDS011;14800;48.174;9.798;2024-03-29T03:06:00;3.67;;;2.20;;
27313;SDS011;14800;48.174;9.798;2024-03-29T03:08:26;3.30;;;2.00;;
27313;SDS011;14800;48.174;9.798;2024-03-29T03:11:11;2.42;;;1.90;;
27313;SDS011;14800;48.174;9.798;2024-03-29T03:13:36;3.15;;;2.30;;
27313;SDS011;14800;48.174;9.798;2024-03-29T03:16:02;2.13;;;1.92;;
27313;SDS011;14800;48.174;9.798;2024-03-29T03:18:28;2.05;;;1.88;;
27313;SDS011;14800;48.174;9.798;2024-03-29T03:20:53;2.30;;;2.03;;
27313;SDS011;14800;48.174;9.798;2024-03-29T03:23:20;2.20;;;2.00;;
27313;SDS011;14800;48.174;9.798;2024-03-29T03:25:46;2.20;;;2.00;;
27313;SDS011;14800;48.174;9.798;2024-03-29T03:28:19;4.28;;;2.17;;
27313;SDS011;14800;48.174;9.798;2024-03-29T03:30:45;3.28;;;2.45;;
27313;SDS011;14800;48.174;9.798;2024-03-29T03:33:11;2.78;;;2.40;;
27313;SDS011;14800;48.174;9.798;2024-03-29T03:35:36;2.50;;;2.08;;
27313;SDS011;14800;48.174;9.798;2024-03-29T03:38:02;2.78;;;2.40;;
27313;SDS011;14800;48.174;9.798;2024-03-29T03:40:27;3.38;;;2.50;;
27313;SDS011;14800;48.174;9.798;2024-03-29T03:42:53;2.65;;;2.22;;
27313;SDS011;14800;48.174;9.798;2024-03-29T03:45:19;2.80;;;2.30;;
27313;SDS011;14800;48.174;9.798;2024-03-29T03:47:44;4.25;;;2.33;;
27313;SDS011;14800;48.174;9.798;2024-03-29T03:50:10;2.55;;;2.00;;
27313;SDS011;14800;48.174;9.798;2024-03-29T03:52:35;2.78;;;1.98;;
27313;SDS011;14800;48.174;9.798;2024-03-29T03:55:01;2.45;;;2.17;;
27313;SDS011;14800;48.174;9.798;2024-03-29T03:57:26;2.60;;;2.40;;
27313;SDS011;14800;48.174;9.798;2024-03-29T03:59:52;2.83;;;1.90;;
27313;SDS011;14800;48.174;9.798;2024-03-29T04:02:17;2.92;;;1.92;;
27313;SDS011;14800;48.174;9.798;2024-03-29T04:04:46;2.50;;;2.05;;
27313;SDS011;14800;48.174;9.798;2024-03-29T04:07:12;3.15;;;2.05;;
27313;SDS011;14800;48.174;9.798;2024-03-29T04:09:38;2.47;;;2.05;;
27313;SDS011;14800;48.174;9.798;2024-03-29T04:12:04;3.25;;;2.10;;
27313;SDS011;14800;48.174;9.798;2024-03-29T04:14:29;3.00;;;2.03;;
27313;SDS011;14800;48.174;9.798;2024-03-29T04:16:55;3.13;;;2.08;;
27313;SDS011;14800;48.174;9.798;2024-03-29T04:19:20;2.58;;;2.03;;
27313;SDS011;14800;48.174;9.798;2024-03-29T04:21:46;3.78;;;1.92;;
27313;SDS011;14800;48.174;9.798;2024-03-29T04:24:11;2.97;;;2.08;;
27313;SDS011;14800;48.174;9.798;2024-03-29T04:26:37;2.95;;;1.83;;
27313;SDS011;14800;48.174;9.798;2024-03-29T04:29:03;2.42;;;2.03;;
27313;SDS011;14800;48.174;9.798;2024-03-29T04:31:29;3.50;;;2.30;;
27313;SDS011;14800;48.174;9.798;2024-03-29T04:33:54;2.28;;;1.92;;
27313;SDS011;14800;48.174;9.798;2024-03-29T04:36:20;3.58;;;2.05;;
27313;SDS011;14800;48.174;9.798;2024-03-29T04:38:45;3.30;;;2.38;;
27313;SDS011;14800;48.174;9.798;2024-03-29T04:41:12;2.53;;;1.90;;
27313;SDS011;14800;48.174;9.798;2024-03-29T04:43:39;3.75;;;2.38;;
27313;SDS011;14800;48.174;9.798;2024-03-29T04:46:11;2.60;;;2.25;;
27313;SDS011;14800;48.174;9.798;2024-03-29T04:48:38;3.17;;;2.58;;
27313;SDS011;14800;48.174;9.798;2024-03-29T04:51:06;5.40;;;2.28;;
27313;SDS011;14800;48.174;9.798;2024-03-29T04:53:31;4.47;;;2.50;;
27313;SDS011;14800;48.174;9.798;2024-03-29T04:55:57;2.45;;;2.25;;
27313;SDS011;14800;48.174;9.798;2024-03-29T04:58:26;3.17;;;2.30;;
27313;SDS011;14800;48.174;9.798;2024-03-29T05:00:53;4.25;;;2.70;;
27313;SDS011;14800;48.174;9.798;2024-03-29T05:03:19;4.68;;;3.13;;
27313;SDS011;14800;48.174;9.798;2024-03-29T05:05:46;5.57;;;3.00;;
27313;SDS011;14800;48.174;9.798;2024-03-29T05:08:12;3.88;;;2.80;;
27313;SDS011;14800;48.174;9.798;2024-03-29T05:10:39;4.53;;;2.63;;
27313;SDS011;14800;48.174;9.798;2024-03-29T05:13:05;3.13;;;2.72;;
27313;SDS011;14800;48.174;9.798;2024-03-29T05:15:31;3.97;;;2.33;;
27313;SDS011;14800;48.174;9.798;2024-03-29T05:17:57;4.18;;;2.40;;
27313;SDS011;14800;48.174;9.798;2024-03-29T05:20:23;3.47;;;2.45;;
27313;SDS011;14800;48.174;9.798;2024-03-29T05:22:48;2.85;;;2.20;;
27313;SDS011;14800;48.174;9.798;2024-03-29T05:25:14;3.75;;;2.50;;
27313;SDS011;14800;48.174;9.798;2024-03-29T05:27:39;3.30;;;2.45;;
27313;SDS011;14800;48.174;9.798;2024-03-29T05:30:05;2.97;;;2.30;;
27313;SDS011;14800;48.174;9.798;2024-03-29T05:32:31;3.33;;;2.17;;
27313;SDS011;14800;48.174;9.798;2024-03-29T05:34:57;2.95;;;2.58;;
27313;SDS011;14800;48.174;9.798;2024-03-29T05:37:22;2.92;;;2.65;;
27313;SDS011;14800;48.174;9.798;2024-03-29T05:39:50;2.97;;;2.47;;
27313;SDS011;14800;48.174;9.798;2024-03-29T05:42:27;5.18;;;2.88;;
27313;SDS011;14800;48.174;9.798;2024-03-29T05:44:54;4.40;;;2.67;;
27313;SDS011;14800;48.174;9.798;2024-03-29T05:47:20;3.58;;;2.75;;
27313;SDS011;14800;48.174;9.798;2024-03-29T05:49:45;3.97;;;3.00;;
27313;SDS011;14800;48.174;9.798;2024-03-29T05:52:11;5.63;;;3.30;;
27313;SDS011;14800;48.174;9.798;2024-03-29T05:54:40;3.42;;;2.88;;
27313;SDS011;14800;48.174;9.798;2024-03-29T05:57:07;4.82;;;3.10;;
27313;SDS011;14800;48.174;9.798;2024-03-29T05:59:33;3.80;;;3.08;;
27313;SDS011;14800;48.174;9.798;2024-03-29T06:01:59;9.27;;;6.00;;
27313;SDS011;14800;48.174;9.798;2024-03-29T06:04:25;9.85;;;5.68;;
27313;SDS011;14800;48.174;9.798;2024-03-29T06:07:03;10.23;;;5.80;;
27313;SDS011;14800;48.174;9.798;2024-03-29T06:09:29;10.98;;;5.85;;
27313;SDS011;14800;48.174;9.798;2024-03-29T06:11:55;10.70;;;4.88;;
27313;SDS011;14800;48.174;9.798;2024-03-29T06:14:22;11.70;;;6.45;;
27313;SDS011;14800;48.174;9.798;2024-03-29T06:17:07;9.95;;;6.30;;
27313;SDS011;14800;48.174;9.798;2024-03-29T06:19:48;6.15;;;4.20;;
27313;SDS011;14800;48.174;9.798;2024-03-29T06:22:20;5.65;;;4.07;;
27313;SDS011;14800;48.174;9.798;2024-03-29T06:24:46;9.45;;;7.30;;
27313;SDS011;14800;48.174;9.798;2024-03-29T06:27:13;9.20;;;6.25;;
27313;SDS011;14800;48.174;9.798;2024-03-29T06:29:42;7.72;;;5.10;;
27313;SDS011;14800;48.174;9.798;2024-03-29T06:32:08;6.30;;;4.18;;
27313;SDS011;14800;48.174;9.798;2024-03-29T06:34:34;6.88;;;4.30;;
27313;SDS011;14800;48.174;9.798;2024-03-29T06:36:59;4.80;;;3.92;;
27313;SDS011;14800;48.174;9.798;2024-03-29T06:39:25;5.90;;;3.67;;
27313;SDS011;14800;48.174;9.798;2024-03-29T06:41:51;4.45;;;3.38;;
27313;SDS011;14800;48.174;9.798;2024-03-29T06:44:17;4.47;;;3.03;;
27313;SDS011;14800;48.174;9.798;2024-03-29T06:46:43;4.82;;;2.90;;
27313;SDS011;14800;48.174;9.798;2024-03-29T06:49:08;5.25;;;3.28;;
27313;SDS011;14800;48.174;9.798;2024-03-29T06:51:34;4.82;;;3.13;;
27313;SDS011;14800;48.174;9.798;2024-03-29T06:53:59;5.10;;;3.80;;
27313;SDS011;14800;48.174;9.798;2024-03-29T06:56:25;5.60;;;3.53;;
27313;SDS011;14800;48.174;9.798;2024-03-29T06:58:50;3.50;;;2.70;;
27313;SDS011;14800;48.174;9.798;2024-03-29T07:01:16;4.45;;;2.83;;
27313;SDS011;14800;48.174;9.798;2024-03-29T07:03:41;4.60;;;3.00;;
27313;SDS011;14800;48.174;9.798;2024-03-29T07:06:07;3.80;;;2.63;;
27313;SDS011;14800;48.174;9.798;2024-03-29T07:08:33;3.33;;;2.50;;
27313;SDS011;14800;48.174;9.798;2024-03-29T07:10:59;2.58;;;2.15;;
27313;SDS011;14800;48.174;9.798;2024-03-29T07:13:25;2.92;;;2.22;;
27313;SDS011;14800;48.174;9.798;2024-03-29T07:15:53;3.83;;;2.58;;
27313;SDS011;14800;48.174;9.798;2024-03-29T07:18:19;3.55;;;2.83;;
27313;SDS011;14800;48.174;9.798;2024-03-29T07:20:44;4.13;;;2.65;;
27313;SDS011;14800;48.174;9.798;2024-03-29T07:23:10;4.38;;;2.58;;
27313;SDS011;14800;48.174;9.798;2024-03-29T07:25:39;4.15;;;3.00;;
27313;SDS011;14800;48.174;9.798;2024-03-29T07:28:05;4.65;;;3.30;;
27313;SDS011;14800;48.174;9.798;2024-03-29T07:30:31;3.90;;;2.78;;
27313;SDS011;14800;48.174;9.798;2024-03-29T07:32:56;2.53;;;2.22;;
27313;SDS011;14800;48.174;9.798;2024-03-29T07:35:22;3.90;;;2.63;;
27313;SDS011;14800;48.174;9.798;2024-03-29T07:37:47;3.78;;;2.33;;
27313;SDS011;14800;48.174;9.798;2024-03-29T07:40:15;3.20;;;2.58;;
27313;SDS011;14800;48.174;9.798;2024-03-29T07:42:41;2.80;;;2.10;;
27313;SDS011;14800;48.174;9.798;2024-03-29T07:45:07;1.90;;;1.80;;
27313;SDS011;14800;48.174;9.798;2024-03-29T07:47:33;1.60;;;1.50;;
27313;SDS011;14800;48.174;9.798;2024-03-29T07:49:58;1.75;;;1.40;;
27313;SDS011;14800;48.174;9.798;2024-03-29T07:52:24;1.50;;;1.40;;
27313;SDS011;14800;48.174;9.798;2024-03-29T07:54:50;1.70;;;1.60;;
27313;SDS011;14800;48.174;9.798;2024-03-29T07:57:15;3.92;;;1.48;;
27313;SDS011;14800;48.174;9.798;2024-03-29T07:59:42;2.30;;;1.48;;
27313;SDS011;14800;48.174;9.798;2024-03-29T08:02:08;1.83;;;1.50;;
27313;SDS011;14800;48.174;9.798;2024-03-29T08:04:34;2.90;;;2.20;;
27313;SDS011;14800;48.174;9.798;2024-03-29T08:06:59;2.85;;;2.00;;
27313;SDS011;14800;48.174;9.798;2024-03-29T08:09:25;3.08;;;2.22;;
27313;SDS011;14800;48.174;9.798;2024-03-29T08:11:50;3.17;;;2.13;;
27313;SDS011;14800;48.174;9.798;2024-03-29T08:14:16;2.42;;;2.15;;
27313;SDS011;14800;48.174;9.798;2024-03-29T08:16:42;4.35;;;2.28;;
27313;SDS011;14800;48.174;9.798;2024-03-29T08:19:08;2.15;;;1.70;;
27313;SDS011;14800;48.174;9.798;2024-03-29T08:21:34;2.38;;;2.17;;
27313;SDS011;14800;48.174;9.798;2024-03-29T08:23:59;3.00;;;2.00;;
27313;SDS011;14800;48.174;9.798;2024-03-29T08:26:26;2.55;;;1.98;;
27313;SDS011;14800;48.174;9.798;2024-03-29T08:28:54;2.05;;;1.70;;
27313;SDS011;14800;48.174;9.798;2024-03-29T08:31:19;2.20;;;2.00;;
27313;SDS011;14800;48.174;9.798;2024-03-29T08:33:45;3.47;;;1.70;;
27313;SDS011;14800;48.174;9.798;2024-03-29T08:36:10;3.05;;;1.92;;
27313;SDS011;14800;48.174;9.798;2024-03-29T08:38:37;1.88;;;1.77;;
27313;SDS011;14800;48.174;9.798;2024-03-29T08:41:06;3.97;;;1.80;;
27313;SDS011;14800;48.174;9.798;2024-03-29T08:43:32;2.08;;;1.83;;
27313;SDS011;14800;48.174;9.798;2024-03-29T08:45:58;2.28;;;2.08;;
27313;SDS011;14800;48.174;9.798;2024-03-29T08:48:26;1.90;;;1.60;;
27313;SDS011;14800;48.174;9.798;2024-03-29T08:50:52;1.88;;;1.77;;
27313;SDS011;14800;48.174;9.798;2024-03-29T08:53:17;2.05;;;1.90;;
27313;SDS011;14800;48.174;9.798;2024-03-29T08:55:45;3.67;;;1.95;;
27313;SDS011;14800;48.174;9.798;2024-03-29T08:58:11;2.22;;;2.03;;
27313;SDS011;14800;48.174;9.798;2024-03-29T09:00:37;2.97;;;2.22;;
27313;SDS011;14800;48.174;9.798;2024-03-29T09:03:03;2.30;;;2.10;;
27313;SDS011;14800;48.174;9.798;2024-03-29T09:05:28;3.03;;;2.00;;
27313;SDS011;14800;48.174;9.798;2024-03-29T09:07:54;3.30;;;2.15;;
27313;SDS011;14800;48.174;9.798;2024-03-29T09:10:21;2.25;;;2.05;;
27313;SDS011;14800;48.174;9.798;2024-03-29T09:12:48;2.20;;;2.00;;
27313;SDS011;14800;48.174;9.798;2024-03-29T09:15:13;1.80;;;1.70;;
27313;SDS011;14800;48.174;9.798;2024-03-29T09:17:41;2.58;;;1.95;;
27313;SDS011;14800;48.174;9.798;2024-03-29T09:20:07;1.77;;;1.67;;
27313;SDS011;14800;48.174;9.798;2024-03-29T09:22:33;1.70;;;1.45;;
27313;SDS011;14800;48.174;9.798;2024-03-29T09:24:59;2.35;;;1.63;;
27313;SDS011;14800;48.174;9.798;2024-03-29T09:27:26;1.85;;;1.45;;
27313;SDS011;14800;48.174;9.798;2024-03-29T09:29:52;1.58;;;1.48;;
27313;SDS011;14800;48.174;9.798;2024-03-29T09:32:18;1.70;;;1.48;;
27313;SDS011;14800;48.174;9.798;2024-03-29T09:34:45;2.05;;;1.50;;
27313;SDS011;14800;48.174;9.798;2024-03-29T09:37:10;2.30;;;1.63;;
27313;SDS011;14800;48.174;9.798;2024-03-29T09:39:36;3.92;;;1.55;;
27313;SDS011;14800;48.174;9.798;2024-03-29T09:42:02;1.40;;;1.30;;
27313;SDS011;14800;48.174;9.798;2024-03-29T09:44:29;2.55;;;1.38;;
27313;SDS011;14800;48.174;9.798;2024-03-29T09:46:59;3.95;;;1.40;;
27313;SDS011;14800;48.174;9.798;2024-03-29T09:49:28;1.35;;;1.25;;
27313;SDS011;14800;48.174;9.798;2024-03-29T09:52:00;1.15;;;1.10;;
27313;SDS011;14800;48.174;9.798;2024-03-29T09:54:27;1.60;;;1.40;;
27313;SDS011;14800;48.174;9.798;2024-03-29T09:56:55;1.50;;;1.40;;
27313;SDS011;14800;48.174;9.798;2024-03-29T09:59:22;1.67;;;1.35;;
27313;SDS011;14800;48.174;9.798;2024-03-29T10:01:48;1.80;;;1.38;;
27313;SDS011;14800;48.174;9.798;2024-03-29T10:04:15;1.52;;;1.40;;
27313;SDS011;14800;48.174;9.798;2024-03-29T10:06:44;1.30;;;1.20;;
27313;SDS011;14800;48.174;9.798;2024-03-29T10:09:14;2.05;;;1.30;;
27313;SDS011;14800;48.174;9.798;2024-03-29T10:11:42;1.20;;;1.10;;
27313;SDS011;14800;48.174;9.798;2024-03-29T10:14:08;1.40;;;1.30;;
27313;SDS011;14800;48.174;9.798;2024-03-29T10:16:33;1.77;;;1.65;;
27313;SDS011;14800;48.174;9.798;2024-03-29T10:18:59;1.40;;;1.30;;
27313;SDS011;14800;48.174;9.798;2024-03-29T10:21:25;1.52;;;1.40;;
27313;SDS011;14800;48.174;9.798;2024-03-29T10:23:53;1.50;;;1.40;;
27313;SDS011;14800;48.174;9.798;2024-03-29T10:26:19;1.42;;;1.33;;
27313;SDS011;14800;48.174;9.798;2024-03-29T10:28:46;1.65;;;1.52;;
27313;SDS011;14800;48.174;9.798;2024-03-29T10:31:12;1.50;;;1.35;;
27313;SDS011;14800;48.174;9.798;2024-03-29T10:33:39;1.92;;;1.48;;
27313;SDS011;14800;48.174;9.798;2024-03-29T10:36:07;1.50;;;1.40;;
27313;SDS011;14800;48.174;9.798;2024-03-29T10:38:34;1.90;;;1.33;;
27313;SDS011;14800;48.174;9.798;2024-03-29T10:41:01;2.20;;;1.55;;
27313;SDS011;14800;48.174;9.798;2024-03-29T10:43:28;1.48;;;1.30;;
27313;SDS011;14800;48.174;9.798;2024-03-29T10:45:55;1.42;;;1.20;;
27313;SDS011;14800;48.174;9.798;2024-03-29T10:48:24;2.00;;;1.50;;
27313;SDS011;14800;48.174;9.798;2024-03-29T10:50:52;1.70;;;1.40;;
27313;SDS011;14800;48.174;9.798;2024-03-29T10:53:19;1.42;;;1.10;;
27313;SDS011;14800;48.174;9.798;2024-03-29T10:55:47;1.58;;;1.17;;
27313;SDS011;14800;48.174;9.798;2024-03-29T10:58:15;2.33;;;1.13;;
27313;SDS011;14800;48.174;9.798;2024-03-29T11:00:47;1.27;;;1.13;;
27313;SDS011;14800;48.174;9.798;2024-03-29T11:03:22;1.83;;;1.15;;
27313;SDS011;14800;48.174;9.798;2024-03-29T11:06:03;1.05;;;0.95;;
27313;SDS011;14800;48.174;9.798;2024-03-29T11:08:33;1.38;;;1.00;;
27313;SDS011;14800;48.174;9.798;2024-03-29T11:11:03;1.88;;;1.00;;
27313;SDS011;14800;48.174;9.798;2024-03-29T11:16:05;2.10;;;1.10;;
27313;SDS011;14800;48.174;9.798;2024-03-29T11:18:30;1.25;;;1.00;;
27313;SDS011;14800;48.174;9.798;2024-03-29T11:20:57;1.20;;;1.00;;
27313;SDS011;14800;48.174;9.798;2024-03-29T11:23:25;1.05;;;0.95;;
27313;SDS011;14800;48.174;9.798;2024-03-29T11:25:52;1.33;;;1.00;;
27313;SDS011;14800;48.174;9.798;2024-03-29T11:28:26;1.50;;;1.10;;
27313;SDS011;14800;48.174;9.798;2024-03-29T11:31:03;1.00;;;0.90;;
27313;SDS011;14800;48.174;9.798;2024-03-29T11:33:34;0.90;;;0.73;;
27313;SDS011;14800;48.174;9.798;2024-03-29T11:38:44;1.48;;;1.00;;
27313;SDS011;14800;48.174;9.798;2024-03-29T11:41:14;1.05;;;0.90;;
27313;SDS011;14800;48.174;9.798;2024-03-29T11:43:41;1.10;;;0.90;;
27313;SDS011;14800;48.174;9.798;2024-03-29T11:46:12;1.13;;;0.93;;
27313;SDS011;14800;48.174;9.798;2024-03-29T11:48:38;1.02;;;0.90;;
27313;SDS011;14800;48.174;9.798;2024-03-29T11:51:05;2.00;;;0.90;;
27313;SDS011;14800;48.174;9.798;2024-03-29T11:53:34;2.10;;;0.93;;
27313;SDS011;14800;48.174;9.798;2024-03-29T11:56:01;0.93;;;0.80;;
27313;SDS011;14800;48.174;9.798;2024-03-29T11:58:28;1.10;;;1.00;;
27313;SDS011;14800;48.174;9.798;2024-03-29T12:00:56;1.20;;;0.90;;
27313;SDS011;14800;48.174;9.798;2024-03-29T12:03:24;2.13;;;1.00;;
27313;SDS011;14800;48.174;9.798;2024-03-29T12:05:51;1.42;;;0.90;;
27313;SDS011;14800;48.174;9.798;2024-03-29T12:08:23;1.98;;;1.10;;
27313;SDS011;14800;48.174;9.798;2024-03-29T12:10:50;1.50;;;1.10;;
27313;SDS011;14800;48.174;9.798;2024-03-29T12:13:16;1.05;;;0.93;;
27313;SDS011;14800;48.174;9.798;2024-03-29T12:15:42;1.25;;;1.15;;
27313;SDS011;14800;48.174;9.798;2024-03-29T12:18:08;1.63;;;1.40;;
27313;SDS011;14800;48.174;9.798;2024-03-29T12:20:35;1.30;;;1.20;;
27313;SDS011;14800;48.174;9.798;2024-03-29T12:23:04;1.17;;;1.00;;
27313;SDS011;14800;48.174;9.798;2024-03-29T12:25:32;1.23;;;1.13;;
27313;SDS011;14800;48.174;9.798;2024-03-29T12:27:59;1.52;;;1.10;;
27313;SDS011;14800;48.174;9.798;2024-03-29T12:30:25;2.42;;;1.20;;
27313;SDS011;14800;48.174;9.798;2024-03-29T12:33:08;1.40;;;1.30;;
27313;SDS011;14800;48.174;9.798;2024-03-29T12:35:36;1.40;;;1.08;;
27313;SDS011;14800;48.174;9.798;2024-03-29T12:38:02;1.42;;;1.33;;
27313;SDS011;14800;48.174;9.798;2024-03-29T12:40:30;2.90;;;1.52;;
27313;SDS011;14800;48.174;9.798;2024-03-29T12:43:05;2.65;;;1.35;;
27313;SDS011;14800;48.174;9.798;2024-03-29T12:45:33;1.65;;;1.20;;
27313;SDS011;14800;48.174;9.798;2024-03-29T12:48:08;1.30;;;1.15;;
27313;SDS011;14800;48.174;9.798;2024-03-29T12:50:36;1.40;;;1.30;;
27313;SDS011;14800;48.174;9.798;2024-03-29T12:53:05;1.27;;;0.90;;
27313;SDS011;14800;48.174;9.798;2024-03-29T12:55:31;1.40;;;1.15;;
27313;SDS011;14800;48.174;9.798;2024-03-29T12:58:03;1.20;;;1.10;;
27313;SDS011;14800;48.174;9.798;2024-03-29T13:00:32;1.30;;;1.20;;
27313;SDS011;14800;48.174;9.798;2024-03-29T13:02:58;1.38;;;1.20;;
27313;SDS011;14800;48.174;9.798;2024-03-29T13:05:24;1.60;;;1.33;;
27313;SDS011;14800;48.174;9.798;2024-03-29T13:07:49;1.35;;;1.25;;
27313;SDS011;14800;48.174;9.798;2024-03-29T13:10:15;1.40;;;1.30;;
27313;SDS011;14800;48.174;9.798;2024-03-29T13:12:45;2.00;;;1.40;;
27313;SDS011;14800;48.174;9.798;2024-03-29T13:15:24;1.38;;;1.27;;
27313;SDS011;14800;48.174;9.798;2024-03-29T13:17:51;1.30;;;1.20;;
27313;SDS011;14800;48.174;9.798;2024-03-29T13:20:18;1.52;;;1.20;;
27313;SDS011;14800;48.174;9.798;2024-03-29T13:22:44;1.15;;;1.05;;
27313;SDS011;14800;48.174;9.798;2024-03-29T13:25:12;3.00;;;1.38;;
27313;SDS011;14800;48.174;9.798;2024-03-29T13:27:38;1.20;;;1.10;;
27313;SDS011;14800;48.174;9.798;2024-03-29T13:30:05;1.98;;;1.30;;
27313;SDS011;14800;48.174;9.798;2024-03-29T13:32:32;1.45;;;1.33;;
27313;SDS011;14800;48.174;9.798;2024-03-29T13:34:59;1.20;;;1.10;;
27313;SDS011;14800;48.174;9.798;2024-03-29T13:37:25;1.60;;;1.02;;
27313;SDS011;14800;48.174;9.798;2024-03-29T13:39:55;1.17;;;1.08;;
27313;SDS011;14800;48.174;9.798;2024-03-29T13:42:20;1.27;;;1.17;;
27313;SDS011;14800;48.174;9.798;2024-03-29T13:44:50;1.27;;;1.00;;
27313;SDS011;14800;48.174;9.798;2024-03-29T13:47:17;1.10;;;1.00;;
27313;SDS011;14800;48.174;9.798;2024-03-29T13:49:43;1.42;;;1.20;;
27313;SDS011;14800;48.174;9.798;2024-03-29T13:52:09;1.98;;;1.00;;
27313;SDS011;14800;48.174;9.798;2024-03-29T13:54:35;1.20;;;1.10;;
27313;SDS011;14800;48.174;9.798;2024-03-29T13:57:01;1.05;;;0.98;;
27313;SDS011;14800;48.174;9.798;2024-03-29T13:59:28;1.77;;;1.20;;
27313;SDS011;14800;48.174;9.798;2024-03-29T14:01:54;1.90;;;1.17;;
27313;SDS011;14800;48.174;9.798;2024-03-29T14:04:20;1.67;;;1.13;;
27313;SDS011;14800;48.174;9.798;2024-03-29T14:06:45;1.67;;;1.00;;
27313;SDS011;14800;48.174;9.798;2024-03-29T14:09:11;1.20;;;1.10;;
27313;SDS011;14800;48.174;9.798;2024-03-29T14:11:37;1.65;;;1.10;;
27313;SDS011;14800;48.174;9.798;2024-03-29T14:14:02;1.20;;;1.10;;
27313;SDS011;14800;48.174;9.798;2024-03-29T14:16:30;1.30;;;1.00;;
27313;SDS011;14800;48.174;9.798;2024-03-29T14:18:56;1.00;;;0.90;;
27313;SDS011;14800;48.174;9.798;2024-03-29T14:21:21;1.15;;;1.05;;
27313;SDS011;14800;48.174;9.798;2024-03-29T14:23:47;1.63;;;1.08;;
27313;SDS011;14800;48.174;9.798;2024-03-29T14:26:12;1.50;;;1.25;;
27313;SDS011;14800;48.174;9.798;2024-03-29T14:28:38;1.63;;;1.10;;
27313;SDS011;14800;48.174;9.798;2024-03-29T14:31:04;1.42;;;0.82;;
27313;SDS011;14800;48.174;9.798;2024-03-29T14:33:30;1.00;;;0.75;;
27313;SDS011;14800;48.174;9.798;2024-03-29T14:35:55;2.17;;;0.90;;
27313;SDS011;14800;48.174;9.798;2024-03-29T14:38:23;1.83;;;1.33;;
27313;SDS011;14800;48.174;9.798;2024-03-29T14:40:48;0.75;;;0.75;;
27313;SDS011;14800;48.174;9.798;2024-03-29T14:43:14;1.05;;;0.80;;
27313;SDS011;14800;48.174;9.798;2024-03-29T14:45:40;1.10;;;0.95;;
27313;SDS011;14800;48.174;9.798;2024-03-29T14:48:06;1.38;;;0.85;;
27313;SDS011;14800;48.174;9.798;2024-03-29T14:50:32;0.70;;;0.68;;